sensor_id;sensor_type;location;lat;lon;timestamp;pressure;altitude;pressure_sealevel;temperature;humidity
42431;BME280;71905;47.466;19.024;2024-02-15T00:01:04;100964.91;;;6.52;100.00
42431;BME280;71905;47.466;19.024;2024-02-15T00:03:32;100968.38;;;6.54;100.00
42431;BME280;71905;47.466;19.024;2024-02-15T00:06:01;100964.00;;;6.53;100.00
42431;BME280;71905;47.466;19.024;2024-02-15T00:08:29;100962.31;;;6.43;100.00
42431;BME280;71905;47.466;19.024;2024-02-15T00:10:57;100958.03;;;6.30;100.00
42431;BME280;71905;47.466;19.024;2024-02-15T00:13:25;100967.69;;;6.18;100.00
42431;BME280;71905;47.466;19.024;2024-02-15T00:15:53;100968.63;;;6.10;100.00
42431;BME280;71905;47.466;19.024;2024-02-15T00:18:23;100969.50;;;6.06;100.00
42431;BME280;71905;47.466;19.024;2024-02-15T00:20:51;100965.09;;;6.09;100.00
42431;BME280;71905;47.466;19.024;2024-02-15T00:23:20;100966.88;;;6.10;100.00
42431;BME280;71905;47.466;19.024;2024-02-15T00:25:48;100964.25;;;6.12;100.00
42431;BME280;71905;47.466;19.024;2024-02-15T00:28:16;100962.47;;;6.14;100.00
42431;BME280;71905;47.466;19.024;2024-02-15T00:30:45;100957.22;;;6.17;100.00
42431;BME280;71905;47.466;19.024;2024-02-15T00:33:13;100966.81;;;6.19;100.00
42431;BME280;71905;47.466;19.024;2024-02-15T00:35:42;100963.31;;;6.25;100.00
42431;BME280;71905;47.466;19.024;2024-02-15T00:38:10;100952.81;;;6.27;100.00
42431;BME280;71905;47.466;19.024;2024-02-15T00:40:38;100957.13;;;6.32;100.00
42431;BME280;71905;47.466;19.024;2024-02-15T00:43:06;100957.13;;;6.31;100.00
42431;BME280;71905;47.466;19.024;2024-02-15T00:45:35;100958.00;;;6.36;100.00
42431;BME280;71905;47.466;19.024;2024-02-15T00:48:04;100959.75;;;6.31;100.00
42431;BME280;71905;47.466;19.024;2024-02-15T00:50:33;100965.00;;;6.31;100.00
42431;BME280;71905;47.466;19.024;2024-02-15T00:53:03;100962.38;;;6.37;100.00
42431;BME280;71905;47.466;19.024;2024-02-15T00:55:31;100971.09;;;6.39;100.00
42431;BME280;71905;47.466;19.024;2024-02-15T00:57:59;100964.09;;;6.39;100.00
42431;BME280;71905;47.466;19.024;2024-02-15T01:00:27;100964.06;;;6.44;100.00
42431;BME280;71905;47.466;19.024;2024-02-15T01:02:55;100964.94;;;6.43;100.00
42431;BME280;71905;47.466;19.024;2024-02-15T01:05:23;100960.53;;;6.46;100.00
42431;BME280;71905;47.466;19.024;2024-02-15T01:07:51;100962.31;;;6.49;100.00
42431;BME280;71905;47.466;19.024;2024-02-15T01:10:24;100962.28;;;6.52;100.00
42431;BME280;71905;47.466;19.024;2024-02-15T01:12:52;100968.38;;;6.54;100.00
42431;BME280;71905;47.466;19.024;2024-02-15T01:15:21;100960.50;;;6.56;100.00
42431;BME280;71905;47.466;19.024;2024-02-15T01:17:49;100966.59;;;6.58;100.00
42431;BME280;71905;47.466;19.024;2024-02-15T01:20:17;100971.84;;;6.59;100.00
42431;BME280;71905;47.466;19.024;2024-02-15T01:22:45;100965.72;;;6.62;100.00
42431;BME280;71905;47.466;19.024;2024-02-15T01:25:13;100965.69;;;6.65;100.00
42431;BME280;71905;47.466;19.024;2024-02-15T01:27:44;100970.00;;;6.70;100.00
42431;BME280;71905;47.466;19.024;2024-02-15T01:30:12;100958.63;;;6.71;100.00
42431;BME280;71905;47.466;19.024;2024-02-15T01:32:40;100963.00;;;6.72;100.00
42431;BME280;71905;47.466;19.024;2024-02-15T01:35:11;100961.25;;;6.74;100.00
42431;BME280;71905;47.466;19.024;2024-02-15T01:37:38;100967.38;;;6.73;100.00
42431;BME280;71905;47.466;19.024;2024-02-15T01:40:08;100963.03;;;6.69;100.00
42431;BME280;71905;47.466;19.024;2024-02-15T01:42:39;100963.91;;;6.68;100.00
42431;BME280;71905;47.466;19.024;2024-02-15T01:45:09;100960.38;;;6.71;100.00
42431;BME280;71905;47.466;19.024;2024-02-15T01:47:39;100962.16;;;6.67;100.00
42431;BME280;71905;47.466;19.024;2024-02-15T01:50:09;100967.47;;;6.61;100.00
42431;BME280;71905;47.466;19.024;2024-02-15T01:52:39;100966.59;;;6.62;100.00
42431;BME280;71905;47.466;19.024;2024-02-15T01:55:09;100964.84;;;6.61;100.00
42431;BME280;71905;47.466;19.024;2024-02-15T01:57:37;100955.19;;;6.65;100.00
42431;BME280;71905;47.466;19.024;2024-02-15T02:00:09;100964.81;;;6.64;100.00
42431;BME280;71905;47.466;19.024;2024-02-15T02:02:38;100960.47;;;6.63;100.00
42431;BME280;71905;47.466;19.024;2024-02-15T02:05:07;100956.94;;;6.64;100.00
42431;BME280;71905;47.466;19.024;2024-02-15T02:07:36;100950.84;;;6.62;100.00
42431;BME280;71905;47.466;19.024;2024-02-15T02:10:06;100954.34;;;6.60;100.00
42431;BME280;71905;47.466;19.024;2024-02-15T02:12:35;100950.88;;;6.56;100.00
42431;BME280;71905;47.466;19.024;2024-02-15T02:15:05;100948.28;;;6.53;100.00
42431;BME280;71905;47.466;19.024;2024-02-15T02:17:34;100943.91;;;6.52;100.00
42431;BME280;71905;47.466;19.024;2024-02-15T02:20:04;100944.81;;;6.49;100.00
42431;BME280;71905;47.466;19.024;2024-02-15T02:22:35;100940.44;;;6.45;100.00
42431;BME280;71905;47.466;19.024;2024-02-15T02:25:06;100939.56;;;6.45;100.00
42431;BME280;71905;47.466;19.024;2024-02-15T02:27:35;100935.19;;;6.45;100.00
42431;BME280;71905;47.466;19.024;2024-02-15T02:30:05;100937.81;;;6.44;100.00
42431;BME280;71905;47.466;19.024;2024-02-15T02:32:33;100940.47;;;6.41;100.00
42431;BME280;71905;47.466;19.024;2024-02-15T02:35:03;100941.38;;;6.38;100.00
42431;BME280;71905;47.466;19.024;2024-02-15T02:37:34;100938.72;;;6.41;100.00
42431;BME280;71905;47.466;19.024;2024-02-15T02:40:06;100936.13;;;6.38;100.00
42431;BME280;71905;47.466;19.024;2024-02-15T02:42:35;100938.78;;;6.35;100.00
42431;BME280;71905;47.466;19.024;2024-02-15T02:45:05;100936.13;;;6.34;100.00
42431;BME280;71905;47.466;19.024;2024-02-15T02:47:33;100933.53;;;6.32;100.00
42431;BME280;71905;47.466;19.024;2024-02-15T02:50:01;100938.75;;;6.32;100.00
42431;BME280;71905;47.466;19.024;2024-02-15T02:52:29;100930.94;;;6.28;100.00
42431;BME280;71905;47.466;19.024;2024-02-15T02:54:57;100937.09;;;6.17;100.00
42431;BME280;71905;47.466;19.024;2024-02-15T02:57:27;100935.38;;;6.15;100.00
42431;BME280;71905;47.466;19.024;2024-02-15T02:59:55;100953.78;;;6.10;100.00
42431;BME280;71905;47.466;19.024;2024-02-15T03:02:23;100937.97;;;6.16;100.00
42431;BME280;71905;47.466;19.024;2024-02-15T03:04:51;100945.03;;;6.11;100.00
42431;BME280;71905;47.466;19.024;2024-02-15T03:07:20;100951.16;;;6.10;100.00
42431;BME280;71905;47.466;19.024;2024-02-15T03:09:50;100952.91;;;6.05;100.00
42431;BME280;71905;47.466;19.024;2024-02-15T03:12:18;100945.00;;;6.13;100.00
42431;BME280;71905;47.466;19.024;2024-02-15T03:14:47;100953.75;;;6.12;100.00
42431;BME280;71905;47.466;19.024;2024-02-15T03:17:15;100946.78;;;6.11;100.00
42431;BME280;71905;47.466;19.024;2024-02-15T03:19:43;100944.16;;;6.05;100.00
42431;BME280;71905;47.466;19.024;2024-02-15T03:22:12;100953.78;;;6.04;100.00
42431;BME280;71905;47.466;19.024;2024-02-15T03:24:40;100948.53;;;6.03;100.00
42431;BME280;71905;47.466;19.024;2024-02-15T03:27:08;100948.56;;;5.97;100.00
42431;BME280;71905;47.466;19.024;2024-02-15T03:29:36;100945.94;;;5.95;100.00
42431;BME280;71905;47.466;19.024;2024-02-15T03:32:06;100944.19;;;6.02;100.00
42431;BME280;71905;47.466;19.024;2024-02-15T03:34:36;100945.94;;;6.00;100.00
42431;BME280;71905;47.466;19.024;2024-02-15T03:37:06;100948.56;;;5.95;100.00
42431;BME280;71905;47.466;19.024;2024-02-15T03:39:34;100952.94;;;5.98;100.00
42431;BME280;71905;47.466;19.024;2024-02-15T03:42:02;100957.28;;;6.03;100.00
42431;BME280;71905;47.466;19.024;2024-02-15T03:44:31;100957.28;;;6.05;100.00
42431;BME280;71905;47.466;19.024;2024-02-15T03:47:01;100951.19;;;6.00;100.00
42431;BME280;71905;47.466;19.024;2024-02-15T03:49:33;100949.41;;;6.03;100.00
42431;BME280;71905;47.466;19.024;2024-02-15T03:52:01;100955.53;;;6.02;100.00
42431;BME280;71905;47.466;19.024;2024-02-15T03:54:29;100955.53;;;6.02;100.00
42431;BME280;71905;47.466;19.024;2024-02-15T03:56:58;100955.59;;;5.90;100.00
42431;BME280;71905;47.466;19.024;2024-02-15T03:59:26;100956.44;;;5.83;100.00
42431;BME280;71905;47.466;19.024;2024-02-15T04:01:54;100956.44;;;5.81;100.00
42431;BME280;71905;47.466;19.024;2024-02-15T04:04:22;100963.44;;;5.84;100.00
42431;BME280;71905;47.466;19.024;2024-02-15T04:06:52;100961.69;;;5.89;100.00
42431;BME280;71905;47.466;19.024;2024-02-15T04:09:20;100953.84;;;5.86;100.00
42431;BME280;71905;47.466;19.024;2024-02-15T04:11:48;100952.97;;;5.90;100.00
42431;BME280;71905;47.466;19.024;2024-02-15T04:14:20;100950.31;;;5.95;100.00
42431;BME280;71905;47.466;19.024;2024-02-15T04:16:48;100942.44;;;5.99;100.00
42431;BME280;71905;47.466;19.024;2024-02-15T04:19:16;100946.81;;;6.00;100.00
42431;BME280;71905;47.466;19.024;2024-02-15T04:21:46;100949.44;;;6.00;100.00
42431;BME280;71905;47.466;19.024;2024-02-15T04:24:16;100953.78;;;6.03;100.00
42431;BME280;71905;47.466;19.024;2024-02-15T04:26:44;100951.16;;;6.03;100.00
42431;BME280;71905;47.466;19.024;2024-02-15T04:29:15;100950.28;;;6.04;100.00
42431;BME280;71905;47.466;19.024;2024-02-15T04:31:44;100938.91;;;6.06;100.00
42431;BME280;71905;47.466;19.024;2024-02-15T04:34:16;100943.25;;;6.07;100.00
42431;BME280;71905;47.466;19.024;2024-02-15T04:36:46;100944.13;;;6.09;100.00
42431;BME280;71905;47.466;19.024;2024-02-15T04:39:19;100950.28;;;6.10;100.00
42431;BME280;71905;47.466;19.024;2024-02-15T04:41:51;100948.50;;;6.07;100.00
42431;BME280;71905;47.466;19.024;2024-02-15T04:44:19;100945.00;;;6.08;100.00
42431;BME280;71905;47.466;19.024;2024-02-15T04:46:48;100952.00;;;6.12;100.00
42431;BME280;71905;47.466;19.024;2024-02-15T04:49:17;100952.91;;;6.10;100.00
42431;BME280;71905;47.466;19.024;2024-02-15T04:51:45;100942.38;;;6.14;100.00
42431;BME280;71905;47.466;19.024;2024-02-15T04:54:14;100945.84;;;6.16;100.00
42431;BME280;71905;47.466;19.024;2024-02-15T04:56:44;100944.97;;;6.16;100.00
42431;BME280;71905;47.466;19.024;2024-02-15T04:59:13;100944.13;;;6.15;100.00
42431;BME280;71905;47.466;19.024;2024-02-15T05:01:42;100938.84;;;6.17;100.00
42431;BME280;71905;47.466;19.024;2024-02-15T05:04:11;100945.84;;;6.19;100.00
42431;BME280;71905;47.466;19.024;2024-02-15T05:06:40;100958.06;;;6.24;100.00
42431;BME280;71905;47.466;19.024;2024-02-15T05:09:08;100958.97;;;6.16;100.00
42431;BME280;71905;47.466;19.024;2024-02-15T05:11:38;100960.72;;;6.17;100.00
42431;BME280;71905;47.466;19.024;2024-02-15T05:14:09;100957.19;;;6.18;100.00
42431;BME280;71905;47.466;19.024;2024-02-15T05:16:38;100956.34;;;6.16;100.00
42431;BME280;71905;47.466;19.024;2024-02-15T05:19:09;100958.97;;;6.15;100.00
42431;BME280;71905;47.466;19.024;2024-02-15T05:21:38;100965.09;;;6.09;100.00
42431;BME280;71905;47.466;19.024;2024-02-15T05:24:07;100967.75;;;6.05;100.00
42431;BME280;71905;47.466;19.024;2024-02-15T05:26:35;100966.88;;;6.04;100.00
42431;BME280;71905;47.466;19.024;2024-02-15T05:29:03;100974.75;;;6.07;100.00
42431;BME280;71905;47.466;19.024;2024-02-15T05:31:32;100975.63;;;6.05;100.00
42431;BME280;71905;47.466;19.024;2024-02-15T05:34:05;100977.34;;;6.09;100.00
42431;BME280;71905;47.466;19.024;2024-02-15T05:36:34;100973.00;;;6.06;100.00
42431;BME280;71905;47.466;19.024;2024-02-15T05:39:02;100967.75;;;6.06;100.00
42431;BME280;71905;47.466;19.024;2024-02-15T05:41:31;100975.59;;;6.12;100.00
42431;BME280;71905;47.466;19.024;2024-02-15T05:44:01;100983.47;;;6.09;100.00
42431;BME280;71905;47.466;19.024;2024-02-15T05:46:33;100980.84;;;6.09;100.00
42431;BME280;71905;47.466;19.024;2024-02-15T05:49:04;100975.59;;;6.12;100.00
42431;BME280;71905;47.466;19.024;2024-02-15T05:51:32;100985.22;;;6.13;100.00
42431;BME280;71905;47.466;19.024;2024-02-15T05:54:01;100980.81;;;6.17;100.00
42431;BME280;71905;47.466;19.024;2024-02-15T05:56:29;100981.66;;;6.20;100.00
42431;BME280;71905;47.466;19.024;2024-02-15T05:58:57;100983.41;;;6.25;100.00
42431;BME280;71905;47.466;19.024;2024-02-15T06:01:25;100988.66;;;6.26;100.00
42431;BME280;71905;47.466;19.024;2024-02-15T06:03:57;100986.88;;;6.30;100.00
42431;BME280;71905;47.466;19.024;2024-02-15T06:06:27;100989.50;;;6.28;100.00
42431;BME280;71905;47.466;19.024;2024-02-15T06:08:55;100994.72;;;6.37;100.00
42431;BME280;71905;47.466;19.024;2024-02-15T06:11:26;100984.19;;;6.42;100.00
42431;BME280;71905;47.466;19.024;2024-02-15T06:13:54;100997.31;;;6.43;100.00
42431;BME280;71905;47.466;19.024;2024-02-15T06:16:22;101008.66;;;6.45;100.00
42431;BME280;71905;47.466;19.024;2024-02-15T06:18:50;101004.25;;;6.47;100.00
42431;BME280;71905;47.466;19.024;2024-02-15T06:21:20;101002.53;;;6.51;100.00
42431;BME280;71905;47.466;19.024;2024-02-15T06:23:49;101013.00;;;6.54;100.00
42431;BME280;71905;47.466;19.024;2024-02-15T06:26:17;101011.22;;;6.61;100.00
42431;BME280;71905;47.466;19.024;2024-02-15T06:28:45;101010.31;;;6.63;100.00
42431;BME280;71905;47.466;19.024;2024-02-15T06:31:31;101012.94;;;6.65;100.00
42431;BME280;71905;47.466;19.024;2024-02-15T06:34:16;101010.28;;;6.66;100.00
42431;BME280;71905;47.466;19.024;2024-02-15T06:37:03;101018.16;;;6.69;100.00
42431;BME280;71905;47.466;19.024;2024-02-15T06:39:48;101012.88;;;6.72;100.00
42431;BME280;71905;47.466;19.024;2024-02-15T06:42:18;101017.28;;;6.73;100.00
42431;BME280;71905;47.466;19.024;2024-02-15T06:44:48;101028.63;;;6.74;100.00
42431;BME280;71905;47.466;19.024;2024-02-15T06:47:16;101027.75;;;6.76;100.00
42431;BME280;71905;47.466;19.024;2024-02-15T06:49:46;101030.38;;;6.76;100.00
42431;BME280;71905;47.466;19.024;2024-02-15T06:52:18;101029.50;;;6.76;100.00
42431;BME280;71905;47.466;19.024;2024-02-15T06:54:46;101029.47;;;6.81;100.00
42431;BME280;71905;47.466;19.024;2024-02-15T06:57:15;101026.88;;;6.76;100.00
42431;BME280;71905;47.466;19.024;2024-02-15T06:59:46;101033.00;;;6.72;100.00
42431;BME280;71905;47.466;19.024;2024-02-15T07:02:14;101029.50;;;6.71;100.00
42431;BME280;71905;47.466;19.024;2024-02-15T07:04:44;101032.13;;;6.76;100.00
42431;BME280;71905;47.466;19.024;2024-02-15T07:07:12;101034.75;;;6.77;100.00
42431;BME280;71905;47.466;19.024;2024-02-15T07:09:42;101040.81;;;6.83;100.00
42431;BME280;71905;47.466;19.024;2024-02-15T07:12:10;101030.28;;;6.86;100.00
42431;BME280;71905;47.466;19.024;2024-02-15T07:14:38;101036.41;;;6.85;100.00
42431;BME280;71905;47.466;19.024;2024-02-15T07:17:07;101032.03;;;6.88;100.00
42431;BME280;71905;47.466;19.024;2024-02-15T07:19:35;101035.53;;;6.90;100.00
42431;BME280;71905;47.466;19.024;2024-02-15T07:22:03;101051.22;;;6.96;100.00
42431;BME280;71905;47.466;19.024;2024-02-15T07:24:32;101046.84;;;6.97;100.00
42431;BME280;71905;47.466;19.024;2024-02-15T07:27:01;101053.00;;;6.99;100.00
42431;BME280;71905;47.466;19.024;2024-02-15T07:29:30;101052.09;;;7.00;100.00
42431;BME280;71905;47.466;19.024;2024-02-15T07:32:01;101046.81;;;7.04;100.00
42431;BME280;71905;47.466;19.024;2024-02-15T07:34:30;101045.03;;;7.06;100.00
42431;BME280;71905;47.466;19.024;2024-02-15T07:37:01;101047.66;;;7.06;100.00
42431;BME280;71905;47.466;19.024;2024-02-15T07:39:29;101041.50;;;7.09;100.00
42431;BME280;71905;47.466;19.024;2024-02-15T07:41:57;101038.00;;;7.10;100.00
42431;BME280;71905;47.466;19.024;2024-02-15T07:44:27;101044.13;;;7.11;100.00
42431;BME280;71905;47.466;19.024;2024-02-15T07:46:56;101044.97;;;7.16;100.00
42431;BME280;71905;47.466;19.024;2024-02-15T07:49:26;101039.66;;;7.22;100.00
42431;BME280;71905;47.466;19.024;2024-02-15T07:51:54;101034.44;;;7.20;100.00
42431;BME280;71905;47.466;19.024;2024-02-15T07:54:23;101040.53;;;7.25;100.00
42431;BME280;71905;47.466;19.024;2024-02-15T07:56:52;101040.50;;;7.30;100.00
42431;BME280;71905;47.466;19.024;2024-02-15T07:59:20;101042.22;;;7.31;100.00
42431;BME280;71905;47.466;19.024;2024-02-15T08:01:50;101036.94;;;7.34;100.00
42431;BME280;71905;47.466;19.024;2024-02-15T08:04:19;101042.16;;;7.40;100.00
42431;BME280;71905;47.466;19.024;2024-02-15T08:06:47;101033.38;;;7.41;100.00
42431;BME280;71905;47.466;19.024;2024-02-15T08:09:17;101040.31;;;7.50;100.00
42431;BME280;71905;47.466;19.024;2024-02-15T08:11:48;101040.28;;;7.53;100.00
42431;BME280;71905;47.466;19.024;2024-02-15T08:14:17;101039.41;;;7.54;100.00
42431;BME280;71905;47.466;19.024;2024-02-15T08:16:47;101034.13;;;7.57;100.00
42431;BME280;71905;47.466;19.024;2024-02-15T08:19:16;101033.19;;;7.61;100.00
42431;BME280;71905;47.466;19.024;2024-02-15T08:21:45;101034.91;;;7.65;100.00
42431;BME280;71905;47.466;19.024;2024-02-15T08:24:17;101024.38;;;7.68;100.00
42431;BME280;71905;47.466;19.024;2024-02-15T08:26:45;101036.59;;;7.71;100.00
42431;BME280;71905;47.466;19.024;2024-02-15T08:29:14;101033.09;;;7.70;100.00
42431;BME280;71905;47.466;19.024;2024-02-15T08:31:42;101035.69;;;7.73;100.00
42431;BME280;71905;47.466;19.024;2024-02-15T08:34:10;101039.22;;;7.75;100.00
42431;BME280;71905;47.466;19.024;2024-02-15T08:36:42;101033.06;;;7.76;100.00
42431;BME280;71905;47.466;19.024;2024-02-15T08:39:10;101034.75;;;7.80;100.00
42431;BME280;71905;47.466;19.024;2024-02-15T08:41:39;101028.53;;;7.87;100.00
42431;BME280;71905;47.466;19.024;2024-02-15T08:44:07;101020.59;;;7.93;100.00
42431;BME280;71905;47.466;19.024;2024-02-15T08:46:38;101024.03;;;8.02;100.00
42431;BME280;71905;47.466;19.024;2024-02-15T08:49:06;101025.69;;;8.09;100.00
42431;BME280;71905;47.466;19.024;2024-02-15T08:51:35;101030.09;;;8.07;100.00
42431;BME280;71905;47.466;19.024;2024-02-15T08:54:05;101035.31;;;8.10;100.00
42431;BME280;71905;47.466;19.024;2024-02-15T08:56:33;101042.34;;;8.09;100.00
42431;BME280;71905;47.466;19.024;2024-02-15T08:59:02;101048.47;;;8.10;100.00
42431;BME280;71905;47.466;19.024;2024-02-15T09:01:30;101044.91;;;8.15;100.00
42431;BME280;71905;47.466;19.024;2024-02-15T09:04:00;101049.22;;;8.21;100.00
42431;BME280;71905;47.466;19.024;2024-02-15T09:06:29;101043.03;;;8.23;100.00
42431;BME280;71905;47.466;19.024;2024-02-15T09:08:57;101041.25;;;8.29;100.00
42431;BME280;71905;47.466;19.024;2024-02-15T09:11:29;101043.81;;;8.33;100.00
42431;BME280;71905;47.466;19.024;2024-02-15T09:13:57;101049.03;;;8.41;100.00
42431;BME280;71905;47.466;19.024;2024-02-15T09:16:25;101049.81;;;8.46;100.00
42431;BME280;71905;47.466;19.024;2024-02-15T09:18:53;101051.50;;;8.53;100.00
42431;BME280;71905;47.466;19.024;2024-02-15T09:21:21;101040.94;;;8.54;100.00
42431;BME280;71905;47.466;19.024;2024-02-15T09:23:51;101040.84;;;8.61;100.00
42431;BME280;71905;47.466;19.024;2024-02-15T09:26:19;101040.81;;;8.65;100.00
42431;BME280;71905;47.466;19.024;2024-02-15T09:28:48;101044.28;;;8.67;100.00
42431;BME280;71905;47.466;19.024;2024-02-15T09:31:17;101048.63;;;8.70;100.00
42431;BME280;71905;47.466;19.024;2024-02-15T09:33:45;101046.00;;;8.70;100.00
42431;BME280;71905;47.466;19.024;2024-02-15T09:36:13;101034.56;;;8.71;100.00
42431;BME280;71905;47.466;19.024;2024-02-15T09:38:43;101037.19;;;8.72;100.00
42431;BME280;71905;47.466;19.024;2024-02-15T09:41:11;101046.81;;;8.73;100.00
42431;BME280;71905;47.466;19.024;2024-02-15T09:43:39;101044.09;;;8.81;100.00
42431;BME280;71905;47.466;19.024;2024-02-15T09:46:08;101042.28;;;8.84;100.00
42431;BME280;71905;47.466;19.024;2024-02-15T09:48:37;101033.41;;;8.92;100.00
42431;BME280;71905;47.466;19.024;2024-02-15T09:51:07;101036.00;;;8.93;100.00
42431;BME280;71905;47.466;19.024;2024-02-15T09:53:36;101040.28;;;9.00;100.00
42431;BME280;71905;47.466;19.024;2024-02-15T09:56:05;101037.63;;;9.03;100.00
42431;BME280;71905;47.466;19.024;2024-02-15T09:58:34;101044.53;;;9.09;100.00
42431;BME280;71905;47.466;19.024;2024-02-15T10:01:04;101040.06;;;9.14;100.00
42431;BME280;71905;47.466;19.024;2024-02-15T10:03:38;101036.53;;;9.17;100.00
42431;BME280;71905;47.466;19.024;2024-02-15T10:06:07;101033.84;;;9.20;100.00
42431;BME280;71905;47.466;19.024;2024-02-15T10:08:37;101029.38;;;9.23;100.00
42431;BME280;71905;47.466;19.024;2024-02-15T10:11:06;101030.19;;;9.27;100.00
42431;BME280;71905;47.466;19.024;2024-02-15T10:13:35;101037.94;;;9.37;100.00
42431;BME280;71905;47.466;19.024;2024-02-15T10:16:16;101039.63;;;9.40;100.00
42431;BME280;71905;47.466;19.024;2024-02-15T10:18:46;101029.81;;;9.50;100.00
42431;BME280;71905;47.466;19.024;2024-02-15T10:21:25;101021.94;;;9.48;100.00
42431;BME280;71905;47.466;19.024;2024-02-15T10:24:04;101023.50;;;9.58;100.00
42431;BME280;71905;47.466;19.024;2024-02-15T10:26:33;101022.63;;;9.59;100.00
42431;BME280;71905;47.466;19.024;2024-02-15T10:29:09;101026.91;;;9.66;100.00
42431;BME280;71905;47.466;19.024;2024-02-15T10:31:40;101029.34;;;9.76;100.00
42431;BME280;71905;47.466;19.024;2024-02-15T10:34:21;101034.41;;;9.88;100.00
42431;BME280;71905;47.466;19.024;2024-02-15T10:36:49;101032.78;;;9.81;100.00
42431;BME280;71905;47.466;19.024;2024-02-15T10:39:19;101029.13;;;9.88;100.00
42431;BME280;71905;47.466;19.024;2024-02-15T10:41:49;101024.66;;;9.93;100.00
42431;BME280;71905;47.466;19.024;2024-02-15T10:44:18;101030.69;;;9.98;100.00
42431;BME280;71905;47.466;19.024;2024-02-15T10:46:47;101027.66;;;10.18;100.00
42431;BME280;71905;47.466;19.024;2024-02-15T10:49:18;101028.75;;;10.08;100.00
42431;BME280;71905;47.466;19.024;2024-02-15T10:51:50;101032.28;;;10.07;100.00
42431;BME280;71905;47.466;19.024;2024-02-15T10:54:30;101024.53;;;9.97;100.00
42431;BME280;71905;47.466;19.024;2024-02-15T10:57:04;101019.19;;;10.00;100.00
42431;BME280;71905;47.466;19.024;2024-02-15T10:59:34;101018.31;;;10.00;100.00
42431;BME280;71905;47.466;19.024;2024-02-15T11:02:27;101024.38;;;10.07;100.00
42431;BME280;71905;47.466;19.024;2024-02-15T11:05:01;101018.81;;;10.20;100.00
42431;BME280;71905;47.466;19.024;2024-02-15T11:07:32;101019.53;;;10.28;100.00
42431;BME280;71905;47.466;19.024;2024-02-15T11:10:03;101012.44;;;10.32;100.00
42431;BME280;71905;47.466;19.024;2024-02-15T11:12:35;101021.09;;;10.39;100.00
42431;BME280;71905;47.466;19.024;2024-02-15T11:15:04;101013.13;;;10.40;100.00
42431;BME280;71905;47.466;19.024;2024-02-15T11:17:47;101012.00;;;10.52;100.00
42431;BME280;71905;47.466;19.024;2024-02-15T11:20:46;101018.94;;;10.57;100.00
42431;BME280;71905;47.466;19.024;2024-02-15T11:23:27;101015.56;;;10.51;100.00
42431;BME280;71905;47.466;19.024;2024-02-15T11:25:58;101010.41;;;10.45;100.00
42431;BME280;71905;47.466;19.024;2024-02-15T11:28:37;101005.84;;;10.51;100.00
42431;BME280;71905;47.466;19.024;2024-02-15T11:31:10;101010.00;;;10.63;100.00
42431;BME280;71905;47.466;19.024;2024-02-15T11:33:43;101004.47;;;10.74;100.00
42431;BME280;71905;47.466;19.024;2024-02-15T11:36:12;100999.16;;;10.75;100.00
42431;BME280;71905;47.466;19.024;2024-02-15T11:38:42;101006.84;;;10.86;100.00
42431;BME280;71905;47.466;19.024;2024-02-15T11:41:11;101006.69;;;10.94;100.00
42431;BME280;71905;47.466;19.024;2024-02-15T11:43:46;101010.31;;;10.88;100.00
42431;BME280;71905;47.466;19.024;2024-02-15T11:46:17;101007.94;;;10.76;100.00
42431;BME280;71905;47.466;19.024;2024-02-15T11:48:47;100996.66;;;10.69;100.00
42431;BME280;71905;47.466;19.024;2024-02-15T11:51:26;100986.72;;;10.79;100.00
42431;BME280;71905;47.466;19.024;2024-02-15T11:54:06;100993.78;;;10.78;100.00
42431;BME280;71905;47.466;19.024;2024-02-15T11:56:53;100998.00;;;10.87;100.00
42431;BME280;71905;47.466;19.024;2024-02-15T11:59:41;100991.56;;;10.99;100.00
42431;BME280;71905;47.466;19.024;2024-02-15T12:02:39;100989.75;;;11.01;100.00
42431;BME280;71905;47.466;19.024;2024-02-15T12:05:25;100987.16;;;10.99;100.00
42431;BME280;71905;47.466;19.024;2024-02-15T12:08:10;100988.75;;;11.06;100.00
42431;BME280;71905;47.466;19.024;2024-02-15T12:11:00;100980.81;;;11.05;100.00
42431;BME280;71905;47.466;19.024;2024-02-15T12:13:50;100983.34;;;11.11;100.00
42431;BME280;71905;47.466;19.024;2024-02-15T12:16:35;100986.16;;;11.03;100.00
42431;BME280;71905;47.466;19.024;2024-02-15T12:19:21;100978.25;;;11.02;100.00
42431;BME280;71905;47.466;19.024;2024-02-15T12:21:50;100973.59;;;11.13;100.00
42431;BME280;71905;47.466;19.024;2024-02-15T12:24:19;100973.59;;;11.13;100.00
42431;BME280;71905;47.466;19.024;2024-02-15T12:27:00;100966.59;;;11.10;100.00
42431;BME280;71905;47.466;19.024;2024-02-15T12:29:30;100963.69;;;11.21;100.00
42431;BME280;71905;47.466;19.024;2024-02-15T12:31:59;100965.44;;;11.22;100.00
42431;BME280;71905;47.466;19.024;2024-02-15T12:34:27;100959.94;;;11.30;100.00
42431;BME280;71905;47.466;19.024;2024-02-15T12:37:05;100960.75;;;11.33;100.00
42431;BME280;71905;47.466;19.024;2024-02-15T12:39:33;100958.09;;;11.33;100.00
42431;BME280;71905;47.466;19.024;2024-02-15T12:42:06;100953.31;;;11.47;100.00
42431;BME280;71905;47.466;19.024;2024-02-15T12:44:36;100949.88;;;11.44;100.00
42431;BME280;71905;47.466;19.024;2024-02-15T12:47:04;100946.19;;;11.49;100.00
42431;BME280;71905;47.466;19.024;2024-02-15T12:49:32;100941.91;;;11.45;100.00
42431;BME280;71905;47.466;19.024;2024-02-15T12:52:33;100945.41;;;11.46;100.00
42431;BME280;71905;47.466;19.024;2024-02-15T12:55:15;100952.50;;;11.45;100.00